createdAt,value
2018-03-28T00:00:56.687Z,19.00
2018-03-28T00:01:59.171Z,19.00
2018-03-28T00:03:01.719Z,19.00
2018-03-28T00:04:04.193Z,19.00
2018-03-28T00:05:06.686Z,19.00
2018-03-28T00:06:09.171Z,19.00
2018-03-28T00:07:11.686Z,19.00
2018-03-28T00:08:14.156Z,19.00
2018-03-28T00:09:16.652Z,19.00
2018-03-28T00:10:19.146Z,18.99
2018-03-28T00:11:21.638Z,18.98
2018-03-28T00:12:24.139Z,18.97
2018-03-28T00:13:26.622Z,18.97
2018-03-28T00:14:29.138Z,18.96
2018-03-28T00:15:31.655Z,18.95
2018-03-28T00:16:34.139Z,18.95
2018-03-28T00:17:36.616Z,18.94
2018-03-28T00:18:39.092Z,18.94
2018-03-28T00:19:41.594Z,18.95
2018-03-28T00:20:44.109Z,18.96
2018-03-28T00:21:46.643Z,18.96
2018-03-28T00:22:49.110Z,18.97
2018-03-28T00:23:51.591Z,18.97
2018-03-28T00:24:54.060Z,18.96
2018-03-28T00:25:56.548Z,18.96
2018-03-28T00:26:59.043Z,18.96
2018-03-28T00:28:01.538Z,18.96
2018-03-28T00:29:04.021Z,18.96
2018-03-28T00:30:06.520Z,18.96
2018-03-28T00:31:09.009Z,18.95
2018-03-28T00:32:11.493Z,18.95
2018-03-28T00:33:13.998Z,18.95
2018-03-28T00:34:16.469Z,18.95
2018-03-28T00:35:18.996Z,18.94
2018-03-28T00:36:21.469Z,18.94
2018-03-28T00:37:23.983Z,18.93
2018-03-28T00:38:26.480Z,18.93
2018-03-28T00:39:28.944Z,18.93
2018-03-28T00:40:31.450Z,18.93
2018-03-28T00:41:33.945Z,18.92
2018-03-28T00:42:36.441Z,18.91
2018-03-28T00:43:39.840Z,18.92
2018-03-28T00:44:42.335Z,18.91
2018-03-28T00:45:44.839Z,18.91
2018-03-28T00:46:47.392Z,18.91
2018-03-28T00:47:49.874Z,18.90
2018-03-28T00:48:52.379Z,18.89
2018-03-28T00:49:54.948Z,18.89
2018-03-28T00:50:57.450Z,18.90
2018-03-28T00:51:59.935Z,18.89
2018-03-28T00:53:02.434Z,18.88
2018-03-28T00:54:04.933Z,18.88
2018-03-28T00:55:07.426Z,18.88
2018-03-28T00:56:09.912Z,18.86
2018-03-28T00:57:12.400Z,18.87
2018-03-28T00:58:14.875Z,18.86
2018-03-28T00:59:17.383Z,18.85
2018-03-28T01:00:19.893Z,18.85
2018-03-28T01:01:22.398Z,18.85
2018-03-28T01:02:24.928Z,18.84
2018-03-28T01:03:27.380Z,18.85
2018-03-28T01:04:29.866Z,18.84
2018-03-28T01:05:32.350Z,18.83
2018-03-28T01:06:34.863Z,18.83
2018-03-28T01:07:37.347Z,18.82
2018-03-28T01:08:39.834Z,18.82
2018-03-28T01:09:42.304Z,18.79
2018-03-28T01:10:44.780Z,18.78
2018-03-28T01:11:47.288Z,18.78
2018-03-28T01:12:49.788Z,18.76
2018-03-28T01:13:52.282Z,18.75
2018-03-28T01:14:54.752Z,18.75
2018-03-28T01:15:57.253Z,18.73
2018-03-28T01:16:59.776Z,18.73
2018-03-28T01:18:02.265Z,18.72
2018-03-28T01:19:04.752Z,18.72
2018-03-28T01:20:07.253Z,18.71
2018-03-28T01:21:09.757Z,18.70
2018-03-28T01:22:12.281Z,18.70
2018-03-28T01:23:14.780Z,18.69
2018-03-28T01:24:17.275Z,18.69
2018-03-28T01:25:19.744Z,18.68
2018-03-28T01:26:22.222Z,18.68
2018-03-28T01:27:24.739Z,18.67
2018-03-28T01:28:27.223Z,18.66
2018-03-28T01:29:29.720Z,18.66
2018-03-28T01:30:32.212Z,18.65
2018-03-28T01:31:34.684Z,18.65
2018-03-28T01:32:37.164Z,18.64
2018-03-28T01:33:39.632Z,18.64
2018-03-28T01:34:42.137Z,18.64
2018-03-28T01:35:44.720Z,18.63
2018-03-28T01:36:47.216Z,18.63
2018-03-28T01:37:49.716Z,18.62
2018-03-28T01:38:52.202Z,18.61
2018-03-28T01:39:54.684Z,18.61
2018-03-28T01:40:57.159Z,18.60
2018-03-28T01:41:59.646Z,18.60
2018-03-28T01:43:02.150Z,18.60
2018-03-28T01:44:04.648Z,18.59
2018-03-28T01:45:07.113Z,18.59
2018-03-28T01:46:09.612Z,18.58
2018-03-28T01:47:12.086Z,18.58
2018-03-28T01:48:14.582Z,18.58
2018-03-28T01:49:17.048Z,18.57
2018-03-28T01:50:19.553Z,18.57
2018-03-28T01:51:22.038Z,18.56
2018-03-28T01:52:24.571Z,18.56
2018-03-28T01:53:27.069Z,18.55
2018-03-28T01:54:29.557Z,18.55
2018-03-28T01:55:32.032Z,18.55
2018-03-28T01:56:34.522Z,18.55
2018-03-28T01:57:37.065Z,18.54
2018-03-28T01:58:39.571Z,18.54
2018-03-28T01:59:42.058Z,18.54
2018-03-28T02:00:44.538Z,18.54
2018-03-28T02:01:47.012Z,18.54
2018-03-28T02:02:49.511Z,18.53
2018-03-28T02:03:52.043Z,18.53
2018-03-28T02:04:54.531Z,18.52
2018-03-28T02:05:57.020Z,18.52
2018-03-28T02:06:59.506Z,18.51
2018-03-28T02:08:01.976Z,18.51
2018-03-28T02:09:06.280Z,18.51
2018-03-28T02:10:08.748Z,18.50
2018-03-28T02:11:11.239Z,18.48
2018-03-28T02:12:13.726Z,18.50
2018-03-28T02:13:16.215Z,18.49
2018-03-28T02:14:18.750Z,18.48
2018-03-28T02:15:21.235Z,18.48
2018-03-28T02:16:23.821Z,18.48
2018-03-28T02:17:26.320Z,18.48
2018-03-28T02:18:28.834Z,18.48
2018-03-28T02:19:31.328Z,18.48
2018-03-28T02:20:33.804Z,18.49
2018-03-28T02:21:36.272Z,18.47
2018-03-28T02:22:38.759Z,18.48
2018-03-28T02:23:41.224Z,18.47
2018-03-28T02:24:43.749Z,18.47
2018-03-28T02:25:46.235Z,18.48
2018-03-28T02:26:48.747Z,18.47
2018-03-28T02:27:51.244Z,18.47
2018-03-28T02:28:53.717Z,18.47
2018-03-28T02:29:56.228Z,18.47
2018-03-28T02:30:58.764Z,18.46
2018-03-28T02:32:01.241Z,18.46
2018-03-28T02:33:03.806Z,18.45
2018-03-28T02:34:06.295Z,18.46
2018-03-28T02:35:08.776Z,18.46
2018-03-28T02:36:11.277Z,18.45
2018-03-28T02:37:13.748Z,18.45
2018-03-28T02:38:16.235Z,18.44
2018-03-28T02:39:18.728Z,18.44
2018-03-28T02:40:21.231Z,18.44
2018-03-28T02:41:23.714Z,18.44
2018-03-28T02:42:26.199Z,18.43
2018-03-28T02:43:28.701Z,18.43
2018-03-28T02:44:31.187Z,18.42
2018-03-28T02:45:33.687Z,18.41
2018-03-28T02:46:36.184Z,18.40
2018-03-28T02:47:38.660Z,18.40
2018-03-28T02:48:41.172Z,18.39
2018-03-28T02:49:43.656Z,18.38
2018-03-28T02:50:46.160Z,18.38
2018-03-28T02:51:48.628Z,18.37
2018-03-28T02:52:51.108Z,18.37
2018-03-28T02:53:53.615Z,18.37
2018-03-28T02:54:56.116Z,18.36
2018-03-28T02:55:58.602Z,18.36
2018-03-28T02:57:01.075Z,18.36
2018-03-28T02:58:03.581Z,18.35
2018-03-28T02:59:06.068Z,18.35
2018-03-28T03:00:08.536Z,18.33
2018-03-28T03:01:11.055Z,18.34
2018-03-28T03:02:13.540Z,18.33
2018-03-28T03:03:16.036Z,18.33
2018-03-28T03:04:18.523Z,18.32
2018-03-28T03:05:20.987Z,18.32
2018-03-28T03:06:23.495Z,18.31
2018-03-28T03:07:25.966Z,18.31
2018-03-28T03:08:28.454Z,18.31
2018-03-28T03:09:30.939Z,18.30
2018-03-28T03:10:33.412Z,18.29
2018-03-28T03:11:35.896Z,18.28
2018-03-28T03:12:38.389Z,18.28
2018-03-28T03:13:40.911Z,18.28
2018-03-28T03:14:43.400Z,18.27
2018-03-28T03:15:45.899Z,18.27
2018-03-28T03:16:48.462Z,18.26
2018-03-28T03:17:50.969Z,18.26
2018-03-28T03:18:53.472Z,18.26
2018-03-28T03:19:55.965Z,18.25
2018-03-28T03:20:58.446Z,18.25
2018-03-28T03:22:00.936Z,18.25
2018-03-28T03:23:03.421Z,18.24
2018-03-28T03:24:05.888Z,18.24
2018-03-28T03:25:08.355Z,18.24
2018-03-28T03:26:10.854Z,18.23
2018-03-28T03:27:13.373Z,18.23
2018-03-28T03:28:15.846Z,18.23
2018-03-28T03:29:18.352Z,18.22
2018-03-28T03:30:20.839Z,18.22
2018-03-28T03:31:23.324Z,18.21
2018-03-28T03:32:25.834Z,18.21
2018-03-28T03:33:28.319Z,18.21
2018-03-28T03:34:30.826Z,18.21
2018-03-28T03:35:33.273Z,18.20
2018-03-28T03:36:35.758Z,18.21
2018-03-28T03:37:38.254Z,18.21
2018-03-28T03:38:40.740Z,18.21
2018-03-28T03:39:43.227Z,18.21
2018-03-28T03:40:45.694Z,18.21
2018-03-28T03:41:48.178Z,18.21
2018-03-28T03:42:50.725Z,18.21
2018-03-28T03:43:53.236Z,18.21
2018-03-28T03:44:55.705Z,18.22
2018-03-28T03:45:58.187Z,18.23
2018-03-28T03:47:00.762Z,18.23
2018-03-28T03:48:03.280Z,18.24
2018-03-28T03:49:05.779Z,18.23
2018-03-28T03:50:08.283Z,18.24
2018-03-28T03:51:10.838Z,18.24
2018-03-28T03:52:13.297Z,18.24
2018-03-28T03:53:15.813Z,18.24
2018-03-28T03:54:18.303Z,18.23
2018-03-28T03:55:20.804Z,18.23
2018-03-28T03:56:23.310Z,18.23
2018-03-28T03:57:25.816Z,18.23
2018-03-28T03:58:28.338Z,18.23
2018-03-28T03:59:30.808Z,18.22
2018-03-28T04:00:33.308Z,18.23
2018-03-28T04:01:35.798Z,18.22
2018-03-28T04:02:38.283Z,18.22
2018-03-28T04:03:40.805Z,18.22
2018-03-28T04:04:43.295Z,18.20
2018-03-28T04:05:45.818Z,18.21
2018-03-28T04:06:48.287Z,18.20
2018-03-28T04:07:50.779Z,18.20
2018-03-28T04:08:53.287Z,18.19
2018-03-28T04:09:55.774Z,18.18
2018-03-28T04:10:58.267Z,18.18
2018-03-28T04:12:00.748Z,18.17
2018-03-28T04:13:03.234Z,18.18
2018-03-28T04:14:05.738Z,18.17
2018-03-28T04:15:08.219Z,18.17
2018-03-28T04:16:10.692Z,18.16
2018-03-28T04:17:13.182Z,18.16
2018-03-28T04:18:15.685Z,18.15
2018-03-28T04:19:18.195Z,18.16
2018-03-28T04:20:20.683Z,18.15
2018-03-28T04:21:23.162Z,18.15
2018-03-28T04:22:25.650Z,18.15
2018-03-28T04:23:28.134Z,18.15
2018-03-28T04:24:30.662Z,18.14
2018-03-28T04:25:33.150Z,18.14
2018-03-28T04:26:35.649Z,18.13
2018-03-28T04:27:38.142Z,18.13
2018-03-28T04:28:40.626Z,18.12
2018-03-28T04:29:43.131Z,18.12
2018-03-28T04:30:45.598Z,18.11
2018-03-28T04:31:48.083Z,18.12
2018-03-28T04:32:50.589Z,18.11
2018-03-28T04:33:53.074Z,18.11
2018-03-28T04:34:55.580Z,18.11
2018-03-28T04:35:58.052Z,18.11
2018-03-28T04:37:00.552Z,18.11
2018-03-28T04:38:03.026Z,18.11
2018-03-28T04:39:06.435Z,18.10
2018-03-28T04:40:08.952Z,18.10
2018-03-28T04:41:11.435Z,18.10
2018-03-28T04:42:13.919Z,18.09
2018-03-28T04:43:16.422Z,18.10
2018-03-28T04:44:18.935Z,18.09
2018-03-28T04:45:21.432Z,18.09
2018-03-28T04:46:23.933Z,18.09
2018-03-28T04:47:26.410Z,18.08
2018-03-28T04:48:28.912Z,18.08
2018-03-28T04:49:31.398Z,18.08
2018-03-28T04:50:33.954Z,18.07
2018-03-28T04:51:36.443Z,18.06
2018-03-28T04:52:38.926Z,18.06
2018-03-28T04:53:41.399Z,18.05
2018-03-28T04:54:43.901Z,18.05
2018-03-28T04:55:46.470Z,18.04
2018-03-28T04:56:49.031Z,18.04
2018-03-28T04:57:51.572Z,18.03
2018-03-28T04:58:54.066Z,18.03
2018-03-28T04:59:56.581Z,18.03
2018-03-28T05:00:59.076Z,18.02
2018-03-28T05:02:01.605Z,18.02
2018-03-28T05:03:04.091Z,18.02
2018-03-28T05:04:06.665Z,18.01
2018-03-28T05:05:09.152Z,18.01
2018-03-28T05:06:11.655Z,18.01
2018-03-28T05:07:14.138Z,18.01
2018-03-28T05:08:16.620Z,18.00
2018-03-28T05:09:19.119Z,18.00
2018-03-28T05:10:21.594Z,18.00
2018-03-28T05:11:24.080Z,17.99
2018-03-28T05:12:26.549Z,17.99
2018-03-28T05:13:29.024Z,17.99
2018-03-28T05:14:31.511Z,17.99
2018-03-28T05:15:33.999Z,17.99
2018-03-28T05:16:36.517Z,17.99
2018-03-28T05:17:39.013Z,17.99
2018-03-28T05:18:41.509Z,17.98
2018-03-28T05:19:44.019Z,17.98
2018-03-28T05:20:46.488Z,17.98
2018-03-28T05:21:48.987Z,17.97
2018-03-28T05:22:51.489Z,17.97
2018-03-28T05:23:54.018Z,17.97
2018-03-28T05:24:56.511Z,17.96
2018-03-28T05:25:59.023Z,17.96
2018-03-28T05:27:01.545Z,17.96
2018-03-28T05:28:04.030Z,17.96
2018-03-28T05:29:06.504Z,17.96
2018-03-28T05:30:09.089Z,17.95
2018-03-28T05:31:11.561Z,17.95
2018-03-28T05:32:14.082Z,17.95
2018-03-28T05:33:16.567Z,17.94
2018-03-28T05:34:19.063Z,17.94
2018-03-28T05:35:21.551Z,17.94
2018-03-28T05:36:24.039Z,17.93
2018-03-28T05:37:26.561Z,17.93
2018-03-28T05:38:29.050Z,17.93
2018-03-28T05:39:31.554Z,17.92
2018-03-28T05:40:34.073Z,17.93
2018-03-28T05:41:36.639Z,17.92
2018-03-28T05:42:39.172Z,17.92
2018-03-28T05:43:41.683Z,17.93
2018-03-28T05:44:44.181Z,17.92
2018-03-28T05:45:46.662Z,17.92
2018-03-28T05:46:49.151Z,17.92
2018-03-28T05:47:51.687Z,17.92
2018-03-28T05:48:54.203Z,17.92
2018-03-28T05:49:56.691Z,17.91
2018-03-28T05:50:59.179Z,17.91
2018-03-28T05:52:01.651Z,17.91
2018-03-28T05:53:04.162Z,17.91
2018-03-28T05:54:06.628Z,17.91
2018-03-28T05:55:09.106Z,17.91
2018-03-28T05:56:11.590Z,17.91
2018-03-28T05:57:14.076Z,17.90
2018-03-28T05:58:16.578Z,17.89
2018-03-28T05:59:19.072Z,17.89
2018-03-28T06:00:21.565Z,17.90
2018-03-28T06:01:24.036Z,17.89
2018-03-28T06:02:26.550Z,17.90
2018-03-28T06:03:29.055Z,17.90
2018-03-28T06:04:31.554Z,17.90
2018-03-28T06:05:34.039Z,17.91
2018-03-28T06:06:36.508Z,17.90
2018-03-28T06:07:38.975Z,17.90
2018-03-28T06:08:41.478Z,17.90
2018-03-28T06:09:43.958Z,17.89
2018-03-28T06:10:46.433Z,17.89
2018-03-28T06:11:48.902Z,17.89
2018-03-28T06:12:51.382Z,17.88
2018-03-28T06:13:53.872Z,17.88
2018-03-28T06:14:56.376Z,17.88
2018-03-28T06:15:58.862Z,17.87
2018-03-28T06:17:01.364Z,17.88
2018-03-28T06:18:03.850Z,17.88
2018-03-28T06:19:06.356Z,17.88
2018-03-28T06:20:08.853Z,17.88
2018-03-28T06:21:11.338Z,17.88
2018-03-28T06:22:13.841Z,17.88
2018-03-28T06:23:16.312Z,17.87
2018-03-28T06:24:18.810Z,17.87
2018-03-28T06:25:21.298Z,17.87
2018-03-28T06:26:23.784Z,17.86
2018-03-28T06:27:26.267Z,17.86
2018-03-28T06:28:28.739Z,17.86
2018-03-28T06:29:31.256Z,17.85
2018-03-28T06:30:33.741Z,17.85
2018-03-28T06:31:36.228Z,17.86
2018-03-28T06:32:38.713Z,17.85
2018-03-28T06:33:41.180Z,17.85
2018-03-28T06:34:43.673Z,17.85
2018-03-28T06:35:46.177Z,17.84
2018-03-28T06:36:48.663Z,17.84
2018-03-28T06:37:51.164Z,17.85
2018-03-28T06:38:53.648Z,17.84
2018-03-28T06:39:56.153Z,17.84
2018-03-28T06:40:58.645Z,17.84
2018-03-28T06:42:01.152Z,17.82
2018-03-28T06:43:03.674Z,17.83
2018-03-28T06:44:06.173Z,17.82
2018-03-28T06:45:08.674Z,17.82
2018-03-28T06:46:11.148Z,17.81
2018-03-28T06:47:13.663Z,17.80
2018-03-28T06:48:16.181Z,17.80
2018-03-28T06:49:18.668Z,17.79
2018-03-28T06:50:21.171Z,17.79
2018-03-28T06:51:23.663Z,17.80
2018-03-28T06:52:26.166Z,17.79
2018-03-28T06:53:28.644Z,17.78
2018-03-28T06:54:31.130Z,17.79
2018-03-28T06:55:33.688Z,17.78
2018-03-28T06:56:36.179Z,17.78
2018-03-28T06:57:38.671Z,17.79
2018-03-28T06:58:41.151Z,17.78
2018-03-28T06:59:43.706Z,17.79
2018-03-28T07:00:46.196Z,17.79
2018-03-28T07:01:48.745Z,17.79
2018-03-28T07:02:51.234Z,17.79
2018-03-28T07:03:53.701Z,17.81
2018-03-28T07:04:56.175Z,17.81
2018-03-28T07:05:58.664Z,17.81
2018-03-28T07:07:01.129Z,17.81
2018-03-28T07:08:03.615Z,17.81
2018-03-28T07:09:06.102Z,17.81
2018-03-28T07:10:08.587Z,17.82
2018-03-28T07:11:11.090Z,17.82
2018-03-28T07:12:13.575Z,17.82
2018-03-28T07:13:16.053Z,17.83
2018-03-28T07:14:18.524Z,17.83
2018-03-28T07:15:21.000Z,17.83
2018-03-28T07:16:23.507Z,17.82
2018-03-28T07:17:26.006Z,17.82
2018-03-28T07:18:28.580Z,17.81
2018-03-28T07:19:31.083Z,17.81
2018-03-28T07:20:33.566Z,17.81
2018-03-28T07:21:36.081Z,17.80
2018-03-28T07:22:38.580Z,17.81
2018-03-28T07:23:41.071Z,17.81
2018-03-28T07:24:43.568Z,17.79
2018-03-28T07:25:46.080Z,17.79
2018-03-28T07:26:48.586Z,17.79
2018-03-28T07:27:51.073Z,17.79
2018-03-28T07:28:53.562Z,17.78
2018-03-28T07:29:56.054Z,17.77
2018-03-28T07:30:58.527Z,17.77
2018-03-28T07:32:01.083Z,17.77
2018-03-28T07:33:03.548Z,17.77
2018-03-28T07:34:06.023Z,17.77
2018-03-28T07:35:08.527Z,17.77
2018-03-28T07:36:11.017Z,17.77
2018-03-28T07:37:13.530Z,17.76
2018-03-28T07:38:16.018Z,17.76
2018-03-28T07:39:18.496Z,17.76
2018-03-28T07:40:21.015Z,17.76
2018-03-28T07:41:23.503Z,17.75
2018-03-28T07:42:26.007Z,17.75
2018-03-28T07:43:28.511Z,17.75
2018-03-28T07:44:30.984Z,17.74
2018-03-28T07:45:33.476Z,17.75
2018-03-28T07:46:35.969Z,17.73
2018-03-28T07:47:38.460Z,17.73
2018-03-28T07:48:40.930Z,17.73
2018-03-28T07:49:43.414Z,17.72
2018-03-28T07:50:45.910Z,17.72
2018-03-28T07:51:48.457Z,17.73
2018-03-28T07:52:51.019Z,17.72
2018-03-28T07:53:53.510Z,17.72
2018-03-28T07:54:56.032Z,17.72
2018-03-28T07:55:58.540Z,17.72
2018-03-28T07:57:01.042Z,17.72
2018-03-28T07:58:03.611Z,17.72
2018-03-28T07:59:06.084Z,17.72
2018-03-28T08:00:08.548Z,17.73
2018-03-28T08:01:11.034Z,17.75
2018-03-28T08:02:13.514Z,17.77
2018-03-28T08:03:16.045Z,17.79
2018-03-28T08:04:18.567Z,17.79
2018-03-28T08:05:21.066Z,17.81
2018-03-28T08:06:23.532Z,17.82
2018-03-28T08:07:26.001Z,17.83
2018-03-28T08:08:28.485Z,17.84
2018-03-28T08:09:30.973Z,17.85
2018-03-28T08:10:33.511Z,17.86
2018-03-28T08:11:35.988Z,17.87
2018-03-28T08:12:38.476Z,17.88
2018-03-28T08:13:40.973Z,17.89
2018-03-28T08:14:43.470Z,17.97
2018-03-28T08:15:45.999Z,17.98
2018-03-28T08:16:48.501Z,17.97
2018-03-28T08:17:50.988Z,17.96
2018-03-28T08:18:53.508Z,17.96
2018-03-28T08:19:55.998Z,17.95
2018-03-28T08:20:58.508Z,17.94
2018-03-28T08:22:00.998Z,17.92
2018-03-28T08:23:03.541Z,17.92
2018-03-28T08:24:06.049Z,17.91
2018-03-28T08:25:08.639Z,17.90
2018-03-28T08:26:11.134Z,17.90
2018-03-28T08:27:13.626Z,17.90
2018-03-28T08:28:16.136Z,17.90
2018-03-28T08:29:18.650Z,17.90
2018-03-28T08:30:21.157Z,17.89
2018-03-28T08:31:23.636Z,17.90
2018-03-28T08:32:26.122Z,17.90
2018-03-28T08:33:28.618Z,17.90
2018-03-28T08:34:31.116Z,17.90
2018-03-28T08:35:33.587Z,17.90
2018-03-28T08:36:36.074Z,17.89
2018-03-28T08:37:38.582Z,17.90
2018-03-28T08:38:41.091Z,17.90
2018-03-28T08:39:43.611Z,17.90
2018-03-28T08:40:46.084Z,17.89
2018-03-28T08:41:48.560Z,17.89
2018-03-28T08:42:51.113Z,17.89
2018-03-28T08:43:53.593Z,17.89
2018-03-28T08:44:56.156Z,17.89
2018-03-28T08:45:58.649Z,17.89
2018-03-28T08:47:01.132Z,17.89
2018-03-28T08:48:03.708Z,17.89
2018-03-28T08:49:06.185Z,17.88
2018-03-28T08:50:08.710Z,17.88
2018-03-28T08:51:11.212Z,17.88
2018-03-28T08:52:13.755Z,17.88
2018-03-28T08:53:16.234Z,17.88
2018-03-28T08:54:18.749Z,17.88
2018-03-28T08:55:21.268Z,17.88
2018-03-28T08:56:23.776Z,17.88
2018-03-28T08:57:26.263Z,17.88
2018-03-28T08:58:28.734Z,17.88
2018-03-28T08:59:31.230Z,17.87
2018-03-28T09:00:33.760Z,17.87
2018-03-28T09:01:36.236Z,17.88
2018-03-28T09:02:38.746Z,17.87
2018-03-28T09:03:41.288Z,17.87
2018-03-28T09:04:43.778Z,17.87
2018-03-28T09:05:46.302Z,17.87
2018-03-28T09:06:48.790Z,17.87
2018-03-28T09:07:51.318Z,17.87
2018-03-28T09:08:53.818Z,17.86
2018-03-28T09:09:56.317Z,17.86
2018-03-28T09:10:58.839Z,17.87
2018-03-28T09:12:01.331Z,17.86
2018-03-28T09:13:03.837Z,17.86
2018-03-28T09:14:06.312Z,17.86
2018-03-28T09:15:08.794Z,17.86
2018-03-28T09:16:11.285Z,17.85
2018-03-28T09:17:13.767Z,17.85
2018-03-28T09:18:16.278Z,17.86
2018-03-28T09:19:18.764Z,17.85
2018-03-28T09:20:21.264Z,17.86
2018-03-28T09:21:23.793Z,17.85
2018-03-28T09:22:26.374Z,17.85
2018-03-28T09:23:28.932Z,17.85
2018-03-28T09:24:31.408Z,17.84
2018-03-28T09:25:33.888Z,17.85
2018-03-28T09:26:36.394Z,17.85
2018-03-28T09:27:38.900Z,17.84
2018-03-28T09:28:41.396Z,17.84
2018-03-28T09:29:43.869Z,17.83
2018-03-28T09:30:46.342Z,17.84
2018-03-28T09:31:48.850Z,17.84
2018-03-28T09:32:51.344Z,17.83
2018-03-28T09:33:53.852Z,17.84
2018-03-28T09:34:56.400Z,17.83
2018-03-28T09:35:58.850Z,17.83
2018-03-28T09:37:01.346Z,17.83
2018-03-28T09:38:03.817Z,17.83
2018-03-28T09:39:06.306Z,17.83
2018-03-28T09:40:08.801Z,17.83
2018-03-28T09:41:11.276Z,17.82
2018-03-28T09:42:13.768Z,17.82
2018-03-28T09:43:16.245Z,17.83
2018-03-28T09:44:18.735Z,17.82
2018-03-28T09:45:21.226Z,17.82
2018-03-28T09:46:23.719Z,17.83
2018-03-28T09:47:26.209Z,17.82
2018-03-28T09:48:28.694Z,17.82
2018-03-28T09:49:31.173Z,17.82
2018-03-28T09:50:33.714Z,17.82
2018-03-28T09:51:36.187Z,17.82
2018-03-28T09:52:38.702Z,17.83
2018-03-28T09:53:41.186Z,17.83
2018-03-28T09:54:43.686Z,17.83
2018-03-28T09:55:46.156Z,17.83
2018-03-28T09:56:48.656Z,17.84
2018-03-28T09:57:51.173Z,17.83
2018-03-28T09:58:53.673Z,17.83
2018-03-28T09:59:56.172Z,17.84
2018-03-28T10:01:04.408Z,17.84
2018-03-28T10:02:10.855Z,17.84
2018-03-28T10:03:13.341Z,17.84
2018-03-28T10:04:15.830Z,17.84
2018-03-28T10:05:18.320Z,17.85
2018-03-28T10:06:20.849Z,17.85
2018-03-28T10:07:23.328Z,17.85
2018-03-28T10:08:26.684Z,17.84
2018-03-28T10:09:28.341Z,17.85
2018-03-28T10:10:30.822Z,17.84
2018-03-28T10:11:33.331Z,17.85
2018-03-28T10:12:35.841Z,17.85
2018-03-28T10:13:38.378Z,17.84
2018-03-28T10:14:40.844Z,17.84
2018-03-28T10:15:43.330Z,17.85
2018-03-28T10:16:45.834Z,17.85
2018-03-28T10:17:48.393Z,17.85
2018-03-28T10:18:50.921Z,17.85
2018-03-28T10:19:53.419Z,17.85
2018-03-28T10:20:55.982Z,17.85
2018-03-28T10:21:58.457Z,17.85
2018-03-28T10:23:00.946Z,17.85
2018-03-28T10:24:03.466Z,17.85
2018-03-28T10:25:05.935Z,17.85
2018-03-28T10:26:08.417Z,17.85
2018-03-28T10:27:10.922Z,17.85
2018-03-28T10:28:13.413Z,17.86
2018-03-28T10:29:15.900Z,17.85
2018-03-28T10:30:18.400Z,17.85
2018-03-28T10:31:20.887Z,17.85
2018-03-28T10:32:23.564Z,17.84
2018-03-28T10:33:26.070Z,17.84
2018-03-28T10:34:28.555Z,17.84
2018-03-28T10:35:31.061Z,17.83
2018-03-28T10:36:33.532Z,17.83
2018-03-28T10:37:36.023Z,17.83
2018-03-28T10:38:38.506Z,17.83
2018-03-28T10:39:41.014Z,17.82
2018-03-28T10:40:43.506Z,17.82
2018-03-28T10:41:45.991Z,17.83
2018-03-28T10:42:48.478Z,17.82
2018-03-28T10:43:50.952Z,17.81
2018-03-28T10:44:53.454Z,17.81
2018-03-28T10:45:55.942Z,17.81
2018-03-28T10:46:58.416Z,17.80
2018-03-28T10:48:00.887Z,17.80
2018-03-28T10:49:03.378Z,17.80
2018-03-28T10:50:05.870Z,17.80
2018-03-28T10:51:08.385Z,17.79
2018-03-28T10:52:10.871Z,17.80
2018-03-28T10:53:13.352Z,17.79
2018-03-28T10:54:15.847Z,17.78
2018-03-28T10:55:18.362Z,17.78
2018-03-28T10:56:20.846Z,17.78
2018-03-28T10:57:23.352Z,17.78
2018-03-28T10:58:25.834Z,17.79
2018-03-28T10:59:28.328Z,17.78
2018-03-28T11:00:30.841Z,17.78
2018-03-28T11:01:33.370Z,17.78
2018-03-28T11:02:35.862Z,17.78
2018-03-28T11:03:38.332Z,17.78
2018-03-28T11:04:40.804Z,17.78
2018-03-28T11:05:43.288Z,17.78
2018-03-28T11:06:45.788Z,17.78
2018-03-28T11:07:48.256Z,17.78
2018-03-28T11:08:50.740Z,17.78
2018-03-28T11:09:53.232Z,17.78
2018-03-28T11:10:55.738Z,17.78
2018-03-28T11:11:58.245Z,17.78
2018-03-28T11:13:00.735Z,17.78
2018-03-28T11:14:03.226Z,17.77
2018-03-28T11:15:05.716Z,17.78
2018-03-28T11:16:08.224Z,17.77
2018-03-28T11:17:10.745Z,17.77
2018-03-28T11:18:13.245Z,17.77
2018-03-28T11:19:15.716Z,17.76
2018-03-28T11:20:18.203Z,17.77
2018-03-28T11:21:20.700Z,17.77
2018-03-28T11:22:23.200Z,17.77
2018-03-28T11:23:25.696Z,17.77
2018-03-28T11:24:28.168Z,17.77
2018-03-28T11:25:30.650Z,17.76
2018-03-28T11:26:33.169Z,17.76
2018-03-28T11:27:35.673Z,17.76
2018-03-28T11:28:38.148Z,17.77
2018-03-28T11:29:40.649Z,17.76
2018-03-28T11:30:43.124Z,17.75
2018-03-28T11:31:45.642Z,17.75
2018-03-28T11:32:48.124Z,17.75
2018-03-28T11:33:50.595Z,17.75
2018-03-28T11:34:53.088Z,17.75
2018-03-28T11:35:55.579Z,17.74
2018-03-28T11:36:58.092Z,17.74
2018-03-28T11:38:00.648Z,17.75
2018-03-28T11:39:03.109Z,17.74
2018-03-28T11:40:05.601Z,17.75
2018-03-28T11:41:08.086Z,17.75
2018-03-28T11:42:10.600Z,17.74
2018-03-28T11:43:13.082Z,17.74
2018-03-28T11:44:15.589Z,17.74
2018-03-28T11:45:18.064Z,17.75
2018-03-28T11:46:20.532Z,17.74
2018-03-28T11:47:23.986Z,17.74
2018-03-28T11:48:26.451Z,17.73
2018-03-28T11:49:28.920Z,17.74
2018-03-28T11:50:31.396Z,17.74
2018-03-28T11:51:33.895Z,17.74
2018-03-28T11:52:36.398Z,17.74
2018-03-28T11:53:38.883Z,17.73
2018-03-28T11:54:41.474Z,17.73
2018-03-28T11:55:43.992Z,17.73
2018-03-28T11:56:46.465Z,17.73
2018-03-28T11:57:48.967Z,17.73
2018-03-28T11:58:51.734Z,17.73
2018-03-28T11:59:54.234Z,17.73
2018-03-28T12:00:56.707Z,17.73
2018-03-28T12:01:59.228Z,17.73
2018-03-28T12:03:01.849Z,17.73
2018-03-28T12:04:04.299Z,17.73
2018-03-28T12:05:06.810Z,17.73
2018-03-28T12:06:09.296Z,17.73
2018-03-28T12:07:11.787Z,17.72
2018-03-28T12:08:14.299Z,17.73
2018-03-28T12:09:16.801Z,17.72
2018-03-28T12:10:19.325Z,17.72
2018-03-28T12:11:21.814Z,17.72
2018-03-28T12:12:24.285Z,17.71
2018-03-28T12:13:26.784Z,17.71
2018-03-28T12:14:29.285Z,17.71
2018-03-28T12:15:31.789Z,17.71
2018-03-28T12:16:34.324Z,17.71
2018-03-28T12:17:36.804Z,17.70
2018-03-28T12:18:39.296Z,17.71
2018-03-28T12:19:41.783Z,17.70
2018-03-28T12:20:44.252Z,17.70
2018-03-28T12:21:46.738Z,17.70
2018-03-28T12:22:49.239Z,17.70
2018-03-28T12:23:51.760Z,17.70
2018-03-28T12:24:54.252Z,17.70
2018-03-28T12:25:56.732Z,17.70
2018-03-28T12:26:59.223Z,17.70
2018-03-28T12:28:01.721Z,17.70
2018-03-28T12:29:04.238Z,17.70
2018-03-28T12:30:06.727Z,17.70
2018-03-28T12:31:09.233Z,17.69
2018-03-28T12:32:11.704Z,17.70
2018-03-28T12:33:14.191Z,17.70
2018-03-28T12:34:16.677Z,17.69
2018-03-28T12:35:19.186Z,17.69
2018-03-28T12:36:21.678Z,17.69
2018-03-28T12:37:24.149Z,17.69
2018-03-28T12:38:26.612Z,17.68
2018-03-28T12:39:29.119Z,17.69
2018-03-28T12:40:31.606Z,17.69
2018-03-28T12:41:34.073Z,17.68
2018-03-28T12:42:36.608Z,17.68
2018-03-28T12:43:39.124Z,17.68
2018-03-28T12:44:41.643Z,17.68
2018-03-28T12:45:44.126Z,17.67
2018-03-28T12:46:46.635Z,17.67
2018-03-28T12:47:49.119Z,17.67
2018-03-28T12:48:51.631Z,17.67
2018-03-28T12:49:54.276Z,17.67
2018-03-28T12:50:56.693Z,17.67
2018-03-28T12:51:59.195Z,17.66
2018-03-28T12:53:01.665Z,17.67
2018-03-28T12:54:04.209Z,17.66
2018-03-28T12:55:06.674Z,17.66
2018-03-28T12:56:09.183Z,17.66
2018-03-28T12:57:11.684Z,17.66
2018-03-28T12:58:14.172Z,17.66
2018-03-28T12:59:16.654Z,17.65
2018-03-28T13:00:19.173Z,17.65
2018-03-28T13:01:21.683Z,17.65
2018-03-28T13:02:24.171Z,17.65
2018-03-28T13:03:26.672Z,17.65
2018-03-28T13:04:29.212Z,17.65
2018-03-28T13:05:31.719Z,17.65
2018-03-28T13:06:34.229Z,17.64
2018-03-28T13:07:36.700Z,17.65
2018-03-28T13:08:39.199Z,17.64
2018-03-28T13:09:41.675Z,17.64
2018-03-28T13:10:44.177Z,17.64
2018-03-28T13:11:46.669Z,17.64
2018-03-28T13:12:49.169Z,17.64
2018-03-28T13:13:51.663Z,17.64
2018-03-28T13:14:54.184Z,17.63
2018-03-28T13:15:56.691Z,17.64
2018-03-28T13:16:59.174Z,17.63
2018-03-28T13:18:01.661Z,17.63
2018-03-28T13:19:04.170Z,17.63
2018-03-28T13:20:06.682Z,17.64
2018-03-28T13:21:09.209Z,17.63
2018-03-28T13:22:11.694Z,17.62
2018-03-28T13:23:14.196Z,17.62
2018-03-28T13:24:16.686Z,17.63
2018-03-28T13:25:19.172Z,17.61